sensor_id;sensor_type;location;lat;lon;timestamp;temperature;humidity
7540;DHT22;3811;49.006;12.076;2022-09-25T00:01:02;12.00;1.00
7540;DHT22;3811;49.006;12.076;2022-09-25T00:03:32;11.90;1.00
7540;DHT22;3811;49.006;12.076;2022-09-25T00:06:01;12.00;1.00
7540;DHT22;3811;49.006;12.076;2022-09-25T00:08:28;11.90;1.00
7540;DHT22;3811;49.006;12.076;2022-09-25T00:13:23;11.90;1.00
7540;DHT22;3811;49.006;12.076;2022-09-25T00:15:52;12.00;1.00
7540;DHT22;3811;49.006;12.076;2022-09-25T00:18:22;11.90;1.00
7540;DHT22;3811;49.006;12.076;2022-09-25T00:23:30;11.90;1.00
7540;DHT22;3811;49.006;12.076;2022-09-25T00:25:58;11.90;1.00
7540;DHT22;3811;49.006;12.076;2022-09-25T00:28:25;11.90;1.00
7540;DHT22;3811;49.006;12.076;2022-09-25T00:35:50;11.80;1.00
7540;DHT22;3811;49.006;12.076;2022-09-25T00:38:17;11.80;1.00
7540;DHT22;3811;49.006;12.076;2022-09-25T00:40:44;11.80;1.00
7540;DHT22;3811;49.006;12.076;2022-09-25T00:43:13;11.80;1.00
7540;DHT22;3811;49.006;12.076;2022-09-25T00:45:41;11.80;1.00
7540;DHT22;3811;49.006;12.076;2022-09-25T00:48:11;11.70;1.00
7540;DHT22;3811;49.006;12.076;2022-09-25T00:50:47;11.70;1.00
7540;DHT22;3811;49.006;12.076;2022-09-25T00:53:19;11.70;1.00
7540;DHT22;3811;49.006;12.076;2022-09-25T00:58:18;11.80;1.00
7540;DHT22;3811;49.006;12.076;2022-09-25T01:03:15;11.80;1.00
7540;DHT22;3811;49.006;12.076;2022-09-25T01:05:44;11.80;1.00
7540;DHT22;3811;49.006;12.076;2022-09-25T01:08:14;11.80;1.00
7540;DHT22;3811;49.006;12.076;2022-09-25T01:10:42;11.80;1.00
7540;DHT22;3811;49.006;12.076;2022-09-25T01:13:10;11.70;1.00
7540;DHT22;3811;49.006;12.076;2022-09-25T01:15:43;11.80;1.00
7540;DHT22;3811;49.006;12.076;2022-09-25T01:21:14;11.70;1.00
7540;DHT22;3811;49.006;12.076;2022-09-25T01:24:23;11.70;1.00
7540;DHT22;3811;49.006;12.076;2022-09-25T01:27:24;11.80;1.00
7540;DHT22;3811;49.006;12.076;2022-09-25T01:30:02;11.70;1.00
7540;DHT22;3811;49.006;12.076;2022-09-25T01:32:35;11.70;1.00
7540;DHT22;3811;49.006;12.076;2022-09-25T01:35:07;11.70;1.00
7540;DHT22;3811;49.006;12.076;2022-09-25T01:37:42;11.70;1.00
7540;DHT22;3811;49.006;12.076;2022-09-25T01:40:14;11.70;1.00
7540;DHT22;3811;49.006;12.076;2022-09-25T01:42:45;11.70;1.00
7540;DHT22;3811;49.006;12.076;2022-09-25T01:45:20;11.60;1.00
7540;DHT22;3811;49.006;12.076;2022-09-25T01:47:51;11.60;1.00
7540;DHT22;3811;49.006;12.076;2022-09-25T01:50:24;11.60;1.00
7540;DHT22;3811;49.006;12.076;2022-09-25T01:52:56;11.60;1.00
7540;DHT22;3811;49.006;12.076;2022-09-25T01:55:29;11.60;1.00
7540;DHT22;3811;49.006;12.076;2022-09-25T01:58:03;11.60;1.00
7540;DHT22;3811;49.006;12.076;2022-09-25T02:00:36;11.60;1.00
7540;DHT22;3811;49.006;12.076;2022-09-25T02:03:08;11.50;1.00
7540;DHT22;3811;49.006;12.076;2022-09-25T02:05:41;11.60;1.00
7540;DHT22;3811;49.006;12.076;2022-09-25T02:08:13;11.60;1.00
7540;DHT22;3811;49.006;12.076;2022-09-25T02:10:43;11.60;1.00
7540;DHT22;3811;49.006;12.076;2022-09-25T02:13:15;11.60;1.00
7540;DHT22;3811;49.006;12.076;2022-09-25T02:15:48;11.50;1.00
7540;DHT22;3811;49.006;12.076;2022-09-25T02:18:16;14.50;1.00
7540;DHT22;3811;49.006;12.076;2022-09-25T02:21:10;11.50;1.00
7540;DHT22;3811;49.006;12.076;2022-09-25T02:23:44;11.50;1.00
7540;DHT22;3811;49.006;12.076;2022-09-25T02:26:17;11.50;1.00
7540;DHT22;3811;49.006;12.076;2022-09-25T02:28:47;11.60;1.00
7540;DHT22;3811;49.006;12.076;2022-09-25T02:31:26;11.60;1.00
7540;DHT22;3811;49.006;12.076;2022-09-25T02:33:56;11.60;1.00
7540;DHT22;3811;49.006;12.076;2022-09-25T02:38:52;11.60;1.00
7540;DHT22;3811;49.006;12.076;2022-09-25T02:41:31;11.50;1.00
7540;DHT22;3811;49.006;12.076;2022-09-25T02:44:09;11.60;1.00
7540;DHT22;3811;49.006;12.076;2022-09-25T02:46:43;11.50;1.00
7540;DHT22;3811;49.006;12.076;2022-09-25T02:49:19;11.50;1.00
7540;DHT22;3811;49.006;12.076;2022-09-25T02:51:56;11.50;1.00
7540;DHT22;3811;49.006;12.076;2022-09-25T02:54:30;11.50;1.00
7540;DHT22;3811;49.006;12.076;2022-09-25T02:57:03;11.40;1.00
7540;DHT22;3811;49.006;12.076;2022-09-25T02:59:35;11.40;1.00
7540;DHT22;3811;49.006;12.076;2022-09-25T03:02:05;11.40;1.00
7540;DHT22;3811;49.006;12.076;2022-09-25T03:04:34;11.40;1.00
7540;DHT22;3811;49.006;12.076;2022-09-25T03:09:34;11.40;1.00
7540;DHT22;3811;49.006;12.076;2022-09-25T03:14:30;11.40;1.00
7540;DHT22;3811;49.006;12.076;2022-09-25T03:16:59;11.40;1.00
7540;DHT22;3811;49.006;12.076;2022-09-25T03:19:30;11.40;1.00
7540;DHT22;3811;49.006;12.076;2022-09-25T03:21:58;11.40;1.00
7540;DHT22;3811;49.006;12.076;2022-09-25T03:24:25;11.40;1.00
7540;DHT22;3811;49.006;12.076;2022-09-25T03:26:55;11.40;1.00
7540;DHT22;3811;49.006;12.076;2022-09-25T03:31:50;11.40;1.00
7540;DHT22;3811;49.006;12.076;2022-09-25T03:34:17;11.50;1.00
7540;DHT22;3811;49.006;12.076;2022-09-25T03:36:47;11.50;1.00
7540;DHT22;3811;49.006;12.076;2022-09-25T03:39:15;11.50;1.00
7540;DHT22;3811;49.006;12.076;2022-09-25T03:49:06;11.50;1.00
7540;DHT22;3811;49.006;12.076;2022-09-25T03:51:38;11.50;1.00
7540;DHT22;3811;49.006;12.076;2022-09-25T03:56:35;11.50;1.00
7540;DHT22;3811;49.006;12.076;2022-09-25T03:59:03;11.50;1.00
7540;DHT22;3811;49.006;12.076;2022-09-25T04:06:27;11.50;1.00
7540;DHT22;3811;49.006;12.076;2022-09-25T04:28:59;11.60;1.00
7540;DHT22;3811;49.006;12.076;2022-09-25T04:33:54;11.60;1.00
7540;DHT22;3811;49.006;12.076;2022-09-25T04:38:48;11.70;1.00
7540;DHT22;3811;49.006;12.076;2022-09-25T04:41:17;11.60;2.00
7540;DHT22;3811;49.006;12.076;2022-09-25T04:48:46;11.70;1.00
7540;DHT22;3811;49.006;12.076;2022-09-25T04:51:13;11.60;1.00
7540;DHT22;3811;49.006;12.076;2022-09-25T04:53:41;11.60;1.00
7540;DHT22;3811;49.006;12.076;2022-09-25T05:01:08;11.60;1.00
7540;DHT22;3811;49.006;12.076;2022-09-25T05:06:03;11.70;1.00
7540;DHT22;3811;49.006;12.076;2022-09-25T05:13:25;11.70;1.00
7540;DHT22;3811;49.006;12.076;2022-09-25T05:15:54;11.70;3.00
7540;DHT22;3811;49.006;12.076;2022-09-25T05:18:22;11.70;1.00
7540;DHT22;3811;49.006;12.076;2022-09-25T05:20:50;11.70;1.00
7540;DHT22;3811;49.006;12.076;2022-09-25T05:23:18;11.70;1.00
7540;DHT22;3811;49.006;12.076;2022-09-25T05:25:50;11.70;1.00
7540;DHT22;3811;49.006;12.076;2022-09-25T05:28:17;11.80;1.00
7540;DHT22;3811;49.006;12.076;2022-09-25T05:38:07;11.80;1.00
7540;DHT22;3811;49.006;12.076;2022-09-25T06:00:21;11.80;1.00
7540;DHT22;3811;49.006;12.076;2022-09-25T06:02:50;11.90;1.00
7540;DHT22;3811;49.006;12.076;2022-09-25T06:07:52;11.90;1.00
7540;DHT22;3811;49.006;12.076;2022-09-25T06:15:20;12.30;1.00
7540;DHT22;3811;49.006;12.076;2022-09-25T06:17:48;12.10;1.00
7540;DHT22;3811;49.006;12.076;2022-09-25T06:20:15;12.10;1.00
7540;DHT22;3811;49.006;12.076;2022-09-25T06:22:43;12.20;1.00
7540;DHT22;3811;49.006;12.076;2022-09-25T06:30:10;12.20;1.00
7540;DHT22;3811;49.006;12.076;2022-09-25T06:32:37;12.30;1.00
7540;DHT22;3811;49.006;12.076;2022-09-25T06:35:09;12.30;1.00
7540;DHT22;3811;49.006;12.076;2022-09-25T06:40:04;12.30;1.00
7540;DHT22;3811;49.006;12.076;2022-09-25T07:04:59;12.60;99.90
7540;DHT22;3811;49.006;12.076;2022-09-25T07:44:20;12.90;1.00
7540;DHT22;3811;49.006;12.076;2022-09-25T07:46:48;12.90;1.00
7540;DHT22;3811;49.006;12.076;2022-09-25T07:56:40;13.00;99.90
7540;DHT22;3811;49.006;12.076;2022-09-25T07:59:07;13.00;1.00
7540;DHT22;3811;49.006;12.076;2022-09-25T08:06:33;13.10;99.90
7540;DHT22;3811;49.006;12.076;2022-09-25T08:33:47;13.20;18.80
7540;DHT22;3811;49.006;12.076;2022-09-25T08:36:15;13.20;99.90
7540;DHT22;3811;49.006;12.076;2022-09-25T08:38:42;13.20;99.90
7540;DHT22;3811;49.006;12.076;2022-09-25T08:41:14;13.10;99.90
7540;DHT22;3811;49.006;12.076;2022-09-25T08:46:19;13.20;99.90
7540;DHT22;3811;49.006;12.076;2022-09-25T08:49:29;13.20;99.90
7540;DHT22;3811;49.006;12.076;2022-09-25T08:52:07;13.20;99.90
7540;DHT22;3811;49.006;12.076;2022-09-25T08:57:26;13.20;1.00
7540;DHT22;3811;49.006;12.076;2022-09-25T08:59:58;13.20;1.00
7540;DHT22;3811;49.006;12.076;2022-09-25T09:02:35;13.20;30.60
7540;DHT22;3811;49.006;12.076;2022-09-25T09:05:08;13.10;1.00
7540;DHT22;3811;49.006;12.076;2022-09-25T09:07:42;13.10;1.00
7540;DHT22;3811;49.006;12.076;2022-09-25T09:10:23;13.20;99.90
7540;DHT22;3811;49.006;12.076;2022-09-25T09:12:56;13.20;1.00
7540;DHT22;3811;49.006;12.076;2022-09-25T09:15:33;13.30;99.90
7540;DHT22;3811;49.006;12.076;2022-09-25T09:18:06;13.30;1.00
7540;DHT22;3811;49.006;12.076;2022-09-25T09:20:44;13.40;99.90
7540;DHT22;3811;49.006;12.076;2022-09-25T09:23:17;13.40;48.20
7540;DHT22;3811;49.006;12.076;2022-09-25T09:25:53;13.50;1.00
7540;DHT22;3811;49.006;12.076;2022-09-25T09:28:49;13.50;99.90
7540;DHT22;3811;49.006;12.076;2022-09-25T09:31:24;13.50;1.00
7540;DHT22;3811;49.006;12.076;2022-09-25T09:34:00;13.50;99.90
7540;DHT22;3811;49.006;12.076;2022-09-25T09:36:37;13.50;99.90
7540;DHT22;3811;49.006;12.076;2022-09-25T09:39:12;13.50;99.90
7540;DHT22;3811;49.006;12.076;2022-09-25T09:41:48;13.40;15.20
7540;DHT22;3811;49.006;12.076;2022-09-25T09:44:36;13.30;99.90
7540;DHT22;3811;49.006;12.076;2022-09-25T09:47:20;13.30;99.90
7540;DHT22;3811;49.006;12.076;2022-09-25T09:49:53;13.30;1.00
7540;DHT22;3811;49.006;12.076;2022-09-25T09:52:27;13.40;1.00
7540;DHT22;3811;49.006;12.076;2022-09-25T09:54:59;13.40;1.00
7540;DHT22;3811;49.006;12.076;2022-09-25T09:57:31;13.30;99.90
7540;DHT22;3811;49.006;12.076;2022-09-25T10:00:03;13.30;1.00
7540;DHT22;3811;49.006;12.076;2022-09-25T10:02:43;13.30;99.90
7540;DHT22;3811;49.006;12.076;2022-09-25T10:05:17;13.30;99.90
7540;DHT22;3811;49.006;12.076;2022-09-25T10:07:48;13.30;1.00
7540;DHT22;3811;49.006;12.076;2022-09-25T10:10:17;13.40;1.00
7540;DHT22;3811;49.006;12.076;2022-09-25T10:15:26;13.40;1.00
7540;DHT22;3811;49.006;12.076;2022-09-25T10:17:57;13.40;99.90
7540;DHT22;3811;49.006;12.076;2022-09-25T10:20:31;13.40;99.90
7540;DHT22;3811;49.006;12.076;2022-09-25T10:22:59;13.40;99.90
7540;DHT22;3811;49.006;12.076;2022-09-25T10:25:36;13.40;99.90
7540;DHT22;3811;49.006;12.076;2022-09-25T10:28:21;13.50;1.00
7540;DHT22;3811;49.006;12.076;2022-09-25T10:33:21;13.50;1.00
7540;DHT22;3811;49.006;12.076;2022-09-25T10:35:50;13.60;99.90
7540;DHT22;3811;49.006;12.076;2022-09-25T10:38:31;13.60;24.60
7540;DHT22;3811;49.006;12.076;2022-09-25T10:41:04;13.80;99.90
7540;DHT22;3811;49.006;12.076;2022-09-25T10:46:12;13.90;99.90
7540;DHT22;3811;49.006;12.076;2022-09-25T10:51:26;14.00;99.90
7540;DHT22;3811;49.006;12.076;2022-09-25T10:54:10;14.10;99.90
7540;DHT22;3811;49.006;12.076;2022-09-25T10:56:38;14.10;99.90
7540;DHT22;3811;49.006;12.076;2022-09-25T10:59:12;14.20;99.90
7540;DHT22;3811;49.006;12.076;2022-09-25T11:01:41;14.20;99.90
7540;DHT22;3811;49.006;12.076;2022-09-25T11:04:14;14.20;99.90
7540;DHT22;3811;49.006;12.076;2022-09-25T11:09:13;14.50;85.70
7540;DHT22;3811;49.006;12.076;2022-09-25T11:14:18;14.70;1.00
7540;DHT22;3811;49.006;12.076;2022-09-25T11:16:50;14.80;99.90
7540;DHT22;3811;49.006;12.076;2022-09-25T11:19:25;14.80;99.90
7540;DHT22;3811;49.006;12.076;2022-09-25T11:22:00;14.90;99.90
7540;DHT22;3811;49.006;12.076;2022-09-25T11:24:43;14.80;99.90
7540;DHT22;3811;49.006;12.076;2022-09-25T11:27:17;14.80;99.90
7540;DHT22;3811;49.006;12.076;2022-09-25T11:29:53;14.80;99.90
7540;DHT22;3811;49.006;12.076;2022-09-25T11:32:25;14.70;99.90
7540;DHT22;3811;49.006;12.076;2022-09-25T11:35:13;14.70;99.90
7540;DHT22;3811;49.006;12.076;2022-09-25T11:37:54;14.80;99.90
7540;DHT22;3811;49.006;12.076;2022-09-25T11:40:31;14.80;99.90
7540;DHT22;3811;49.006;12.076;2022-09-25T11:43:25;14.90;99.90
7540;DHT22;3811;49.006;12.076;2022-09-25T11:45:59;14.80;99.90
7540;DHT22;3811;49.006;12.076;2022-09-25T11:48:44;15.00;99.90
7540;DHT22;3811;49.006;12.076;2022-09-25T11:51:22;15.10;99.90
7540;DHT22;3811;49.006;12.076;2022-09-25T11:53:58;15.10;99.90
7540;DHT22;3811;49.006;12.076;2022-09-25T11:56:32;15.30;99.90
7540;DHT22;3811;49.006;12.076;2022-09-25T11:59:13;15.40;99.90
7540;DHT22;3811;49.006;12.076;2022-09-25T12:07:17;15.40;99.90
7540;DHT22;3811;49.006;12.076;2022-09-25T12:10:02;15.30;94.30
7540;DHT22;3811;49.006;12.076;2022-09-25T12:12:37;15.20;99.90
7540;DHT22;3811;49.006;12.076;2022-09-25T12:15:14;15.10;99.90
7540;DHT22;3811;49.006;12.076;2022-09-25T12:17:50;15.00;92.00
7540;DHT22;3811;49.006;12.076;2022-09-25T12:23:03;14.90;99.90
7540;DHT22;3811;49.006;12.076;2022-09-25T12:25:56;14.90;99.90
7540;DHT22;3811;49.006;12.076;2022-09-25T12:28:33;14.90;99.90
7540;DHT22;3811;49.006;12.076;2022-09-25T12:36:13;15.00;87.50
7540;DHT22;3811;49.006;12.076;2022-09-25T12:38:49;15.10;27.30
7540;DHT22;3811;49.006;12.076;2022-09-25T12:41:26;15.20;10.10
7540;DHT22;3811;49.006;12.076;2022-09-25T12:48:59;15.20;1.00
7540;DHT22;3811;49.006;12.076;2022-09-25T12:51:33;15.30;1.00
7540;DHT22;3811;49.006;12.076;2022-09-25T12:54:10;15.40;1.00
7540;DHT22;3811;49.006;12.076;2022-09-25T12:56:43;15.30;1.00
7540;DHT22;3811;49.006;12.076;2022-09-25T12:59:15;15.30;1.00
7540;DHT22;3811;49.006;12.076;2022-09-25T13:01:49;15.40;1.00
7540;DHT22;3811;49.006;12.076;2022-09-25T13:04:36;15.30;1.00
7540;DHT22;3811;49.006;12.076;2022-09-25T13:07:13;15.20;1.00
7540;DHT22;3811;49.006;12.076;2022-09-25T13:09:44;15.20;1.00
7540;DHT22;3811;49.006;12.076;2022-09-25T13:12:20;15.30;1.00
7540;DHT22;3811;49.006;12.076;2022-09-25T13:14:53;15.50;1.00
7540;DHT22;3811;49.006;12.076;2022-09-25T13:19:49;15.80;1.00
7540;DHT22;3811;49.006;12.076;2022-09-25T13:22:18;15.80;1.00
7540;DHT22;3811;49.006;12.076;2022-09-25T13:24:51;15.80;1.00
7540;DHT22;3811;49.006;12.076;2022-09-25T13:27:23;15.80;1.00
7540;DHT22;3811;49.006;12.076;2022-09-25T13:29:56;15.60;1.00
7540;DHT22;3811;49.006;12.076;2022-09-25T13:34:55;15.30;1.00
7540;DHT22;3811;49.006;12.076;2022-09-25T13:37:29;17.00;21.50
7540;DHT22;3811;49.006;12.076;2022-09-25T13:39:59;15.30;59.80
7540;DHT22;3811;49.006;12.076;2022-09-25T13:42:45;15.20;60.50
7540;DHT22;3811;49.006;12.076;2022-09-25T13:45:29;15.20;87.10
7540;DHT22;3811;49.006;12.076;2022-09-25T13:48:00;15.20;33.60
7540;DHT22;3811;49.006;12.076;2022-09-25T13:53:28;15.20;80.40
7540;DHT22;3811;49.006;12.076;2022-09-25T13:56:22;15.30;83.20
7540;DHT22;3811;49.006;12.076;2022-09-25T14:02:24;15.20;1.00
7540;DHT22;3811;49.006;12.076;2022-09-25T14:09:57;15.40;1.00
7540;DHT22;3811;49.006;12.076;2022-09-25T14:12:40;15.60;1.00
7540;DHT22;3811;49.006;12.076;2022-09-25T14:15:18;15.80;1.00
7540;DHT22;3811;49.006;12.076;2022-09-25T14:17:48;15.80;1.00
7540;DHT22;3811;49.006;12.076;2022-09-25T14:20:29;15.80;1.00
7540;DHT22;3811;49.006;12.076;2022-09-25T14:22:58;15.80;1.00
7540;DHT22;3811;49.006;12.076;2022-09-25T14:25:28;15.60;1.00
7540;DHT22;3811;49.006;12.076;2022-09-25T14:30:27;15.30;1.00
7540;DHT22;3811;49.006;12.076;2022-09-25T14:33:11;15.30;1.00
7540;DHT22;3811;49.006;12.076;2022-09-25T14:35:46;15.50;1.00
7540;DHT22;3811;49.006;12.076;2022-09-25T14:38:28;15.80;1.00
7540;DHT22;3811;49.006;12.076;2022-09-25T14:41:10;16.00;1.00
7540;DHT22;3811;49.006;12.076;2022-09-25T14:46:31;15.60;1.00
7540;DHT22;3811;49.006;12.076;2022-09-25T14:49:05;15.50;1.00
7540;DHT22;3811;49.006;12.076;2022-09-25T14:51:37;15.40;1.00
7540;DHT22;3811;49.006;12.076;2022-09-25T14:54:09;15.50;1.00
7540;DHT22;3811;49.006;12.076;2022-09-25T14:56:51;15.40;1.00
7540;DHT22;3811;49.006;12.076;2022-09-25T14:59:25;15.20;1.00
7540;DHT22;3811;49.006;12.076;2022-09-25T15:01:58;15.30;1.00
7540;DHT22;3811;49.006;12.076;2022-09-25T15:04:29;15.20;1.00
7540;DHT22;3811;49.006;12.076;2022-09-25T15:07:00;15.20;1.00
7540;DHT22;3811;49.006;12.076;2022-09-25T15:09:29;15.10;1.00
7540;DHT22;3811;49.006;12.076;2022-09-25T15:12:13;15.20;1.00
7540;DHT22;3811;49.006;12.076;2022-09-25T15:14:59;15.40;1.00
7540;DHT22;3811;49.006;12.076;2022-09-25T15:19:58;15.40;1.00
7540;DHT22;3811;49.006;12.076;2022-09-25T15:27:26;15.50;1.00
7540;DHT22;3811;49.006;12.076;2022-09-25T15:29:54;15.50;1.00
7540;DHT22;3811;49.006;12.076;2022-09-25T15:32:23;15.40;1.00
7540;DHT22;3811;49.006;12.076;2022-09-25T15:35:06;15.30;1.00
7540;DHT22;3811;49.006;12.076;2022-09-25T15:40:16;15.20;1.00
7540;DHT22;3811;49.006;12.076;2022-09-25T15:42:45;15.00;1.00
7540;DHT22;3811;49.006;12.076;2022-09-25T15:45:33;14.90;1.00
7540;DHT22;3811;49.006;12.076;2022-09-25T15:48:07;14.80;1.00
7540;DHT22;3811;49.006;12.076;2022-09-25T15:53:04;14.60;97.40
7540;DHT22;3811;49.006;12.076;2022-09-25T15:58:04;14.50;99.90
7540;DHT22;3811;49.006;12.076;2022-09-25T16:00:38;14.50;99.90
7540;DHT22;3811;49.006;12.076;2022-09-25T16:03:24;14.50;99.90
7540;DHT22;3811;49.006;12.076;2022-09-25T16:11:51;14.40;99.90
7540;DHT22;3811;49.006;12.076;2022-09-25T16:16:56;14.40;99.90
7540;DHT22;3811;49.006;12.076;2022-09-25T16:19:44;14.40;99.90
7540;DHT22;3811;49.006;12.076;2022-09-25T16:22:24;14.40;99.90
7540;DHT22;3811;49.006;12.076;2022-09-25T16:24:53;14.40;99.90
7540;DHT22;3811;49.006;12.076;2022-09-25T16:27:25;14.30;99.90
7540;DHT22;3811;49.006;12.076;2022-09-25T16:32:25;14.20;99.90
7540;DHT22;3811;49.006;12.076;2022-09-25T16:34:56;14.20;99.90
7540;DHT22;3811;49.006;12.076;2022-09-25T16:37:29;14.10;99.90
7540;DHT22;3811;49.006;12.076;2022-09-25T16:40:14;14.10;99.90
7540;DHT22;3811;49.006;12.076;2022-09-25T16:45:15;14.00;99.90
7540;DHT22;3811;49.006;12.076;2022-09-25T16:47:43;14.00;99.90
7540;DHT22;3811;49.006;12.076;2022-09-25T16:50:12;14.00;99.90
7540;DHT22;3811;49.006;12.076;2022-09-25T16:52:42;13.90;99.90
7540;DHT22;3811;49.006;12.076;2022-09-25T16:55:21;13.90;99.90
7540;DHT22;3811;49.006;12.076;2022-09-25T17:00:20;13.70;99.90
7540;DHT22;3811;49.006;12.076;2022-09-25T17:05:18;13.50;1.00
7540;DHT22;3811;49.006;12.076;2022-09-25T17:07:49;13.40;1.00
7540;DHT22;3811;49.006;12.076;2022-09-25T17:12:46;13.30;91.50
7540;DHT22;3811;49.006;12.076;2022-09-25T17:15:19;13.20;99.90
7540;DHT22;3811;49.006;12.076;2022-09-25T17:25:35;12.90;99.90
7540;DHT22;3811;49.006;12.076;2022-09-25T17:30:33;12.70;99.90
7540;DHT22;3811;49.006;12.076;2022-09-25T17:33:01;12.70;1.00
7540;DHT22;3811;49.006;12.076;2022-09-25T17:40:33;12.60;99.90
7540;DHT22;3811;49.006;12.076;2022-09-25T17:45:32;12.40;99.90
7540;DHT22;3811;49.006;12.076;2022-09-25T17:48:02;12.30;1.00
7540;DHT22;3811;49.006;12.076;2022-09-25T17:53:00;12.30;99.90
7540;DHT22;3811;49.006;12.076;2022-09-25T18:21:26;12.20;8.10
7540;DHT22;3811;49.006;12.076;2022-09-25T18:24:16;12.30;1.00
7540;DHT22;3811;49.006;12.076;2022-09-25T19:03:49;12.50;1.00
7540;DHT22;3811;49.006;12.076;2022-09-25T19:06:18;12.60;1.00
7540;DHT22;3811;49.006;12.076;2022-09-25T19:33:36;12.60;47.80
7540;DHT22;3811;49.006;12.076;2022-09-25T19:36:05;12.60;1.00
7540;DHT22;3811;49.006;12.076;2022-09-25T19:38:33;12.60;45.50
7540;DHT22;3811;49.006;12.076;2022-09-25T19:41:03;12.60;30.80
7540;DHT22;3811;49.006;12.076;2022-09-25T19:48:31;12.60;99.90
7540;DHT22;3811;49.006;12.076;2022-09-25T20:50:28;12.60;99.90
7540;DHT22;3811;49.006;12.076;2022-09-25T22:04:20;12.50;99.90
7540;DHT22;3811;49.006;12.076;2022-09-25T22:09:16;12.40;99.90
7540;DHT22;3811;49.006;12.076;2022-09-25T22:26:33;12.30;1.00
7540;DHT22;3811;49.006;12.076;2022-09-25T22:29:00;12.30;99.90
7540;DHT22;3811;49.006;12.076;2022-09-25T22:31:30;12.30;99.90
7540;DHT22;3811;49.006;12.076;2022-09-25T22:34:01;12.30;99.90
7540;DHT22;3811;49.006;12.076;2022-09-25T22:51:17;12.30;99.90
7540;DHT22;3811;49.006;12.076;2022-09-25T22:56:14;12.30;99.90
7540;DHT22;3811;49.006;12.076;2022-09-25T23:01:13;12.30;99.90
7540;DHT22;3811;49.006;12.076;2022-09-25T23:11:04;12.20;99.90
7540;DHT22;3811;49.006;12.076;2022-09-25T23:13:32;12.20;99.90
